sensor_id;sensor_type;location;lat;lon;timestamp;temperature;humidity
15765;DHT22;7983;50.744;7.086;2023-12-20T00:00:22;8.90;99.90
15765;DHT22;7983;50.744;7.086;2023-12-20T00:02:48;8.90;99.90
15765;DHT22;7983;50.744;7.086;2023-12-20T00:05:14;9.00;99.90
15765;DHT22;7983;50.744;7.086;2023-12-20T00:07:42;8.90;99.90
15765;DHT22;7983;50.744;7.086;2023-12-20T00:10:08;8.90;99.90
15765;DHT22;7983;50.744;7.086;2023-12-20T00:12:33;9.00;99.90
15765;DHT22;7983;50.744;7.086;2023-12-20T00:15:01;9.00;99.90
15765;DHT22;7983;50.744;7.086;2023-12-20T00:17:29;9.00;99.90
15765;DHT22;7983;50.744;7.086;2023-12-20T00:19:55;9.00;99.90
15765;DHT22;7983;50.744;7.086;2023-12-20T00:22:21;9.00;99.90
15765;DHT22;7983;50.744;7.086;2023-12-20T00:24:46;9.00;99.90
15765;DHT22;7983;50.744;7.086;2023-12-20T00:27:12;9.00;99.90
15765;DHT22;7983;50.744;7.086;2023-12-20T00:29:37;9.00;99.90
15765;DHT22;7983;50.744;7.086;2023-12-20T00:32:03;9.00;99.90
15765;DHT22;7983;50.744;7.086;2023-12-20T00:34:29;9.10;99.90
15765;DHT22;7983;50.744;7.086;2023-12-20T00:36:55;9.10;99.90
15765;DHT22;7983;50.744;7.086;2023-12-20T00:39:23;9.10;99.90
15765;DHT22;7983;50.744;7.086;2023-12-20T00:41:49;9.10;99.90
15765;DHT22;7983;50.744;7.086;2023-12-20T00:44:15;9.10;99.90
15765;DHT22;7983;50.744;7.086;2023-12-20T00:46:44;9.10;99.90
15765;DHT22;7983;50.744;7.086;2023-12-20T00:49:09;9.10;99.90
15765;DHT22;7983;50.744;7.086;2023-12-20T00:51:35;9.10;99.90
15765;DHT22;7983;50.744;7.086;2023-12-20T00:54:00;9.10;99.90
15765;DHT22;7983;50.744;7.086;2023-12-20T00:56:26;9.10;99.90
15765;DHT22;7983;50.744;7.086;2023-12-20T00:58:51;9.10;99.90
15765;DHT22;7983;50.744;7.086;2023-12-20T01:01:19;9.10;99.90
15765;DHT22;7983;50.744;7.086;2023-12-20T01:03:45;9.20;99.90
15765;DHT22;7983;50.744;7.086;2023-12-20T01:06:13;9.10;99.90
15765;DHT22;7983;50.744;7.086;2023-12-20T01:08:39;9.20;99.90
15765;DHT22;7983;50.744;7.086;2023-12-20T01:11:05;9.10;99.90
15765;DHT22;7983;50.744;7.086;2023-12-20T01:13:31;9.10;99.90
15765;DHT22;7983;50.744;7.086;2023-12-20T01:15:56;9.10;99.90
15765;DHT22;7983;50.744;7.086;2023-12-20T01:18:24;9.00;99.90
15765;DHT22;7983;50.744;7.086;2023-12-20T01:20:52;9.10;99.90
15765;DHT22;7983;50.744;7.086;2023-12-20T01:23:20;9.10;99.90
15765;DHT22;7983;50.744;7.086;2023-12-20T01:25:46;9.10;99.90
15765;DHT22;7983;50.744;7.086;2023-12-20T01:28:11;9.10;99.90
15765;DHT22;7983;50.744;7.086;2023-12-20T01:30:39;9.10;99.90
15765;DHT22;7983;50.744;7.086;2023-12-20T01:33:05;9.10;99.90
15765;DHT22;7983;50.744;7.086;2023-12-20T01:35:30;9.20;99.90
15765;DHT22;7983;50.744;7.086;2023-12-20T01:37:56;9.20;99.90
15765;DHT22;7983;50.744;7.086;2023-12-20T01:40:22;9.20;99.90
15765;DHT22;7983;50.744;7.086;2023-12-20T01:42:58;9.20;99.90
15765;DHT22;7983;50.744;7.086;2023-12-20T01:45:26;9.20;99.90
15765;DHT22;7983;50.744;7.086;2023-12-20T01:47:56;9.30;99.90
15765;DHT22;7983;50.744;7.086;2023-12-20T01:50:23;9.30;99.90
15765;DHT22;7983;50.744;7.086;2023-12-20T01:52:49;9.20;99.90
15765;DHT22;7983;50.744;7.086;2023-12-20T01:55:18;9.30;99.90
15765;DHT22;7983;50.744;7.086;2023-12-20T01:57:47;9.20;99.90
15765;DHT22;7983;50.744;7.086;2023-12-20T02:00:13;9.30;99.90
15765;DHT22;7983;50.744;7.086;2023-12-20T02:02:40;9.30;99.90
15765;DHT22;7983;50.744;7.086;2023-12-20T02:05:07;9.30;99.90
15765;DHT22;7983;50.744;7.086;2023-12-20T02:07:33;9.30;99.90
15765;DHT22;7983;50.744;7.086;2023-12-20T02:10:06;9.30;99.90
15765;DHT22;7983;50.744;7.086;2023-12-20T02:12:32;9.30;99.90
15765;DHT22;7983;50.744;7.086;2023-12-20T02:14:57;9.20;99.90
15765;DHT22;7983;50.744;7.086;2023-12-20T02:17:28;9.20;99.90
15765;DHT22;7983;50.744;7.086;2023-12-20T02:19:55;9.20;99.90
15765;DHT22;7983;50.744;7.086;2023-12-20T02:22:25;9.10;99.90
15765;DHT22;7983;50.744;7.086;2023-12-20T02:24:51;9.10;99.90
15765;DHT22;7983;50.744;7.086;2023-12-20T02:27:18;9.10;99.90
15765;DHT22;7983;50.744;7.086;2023-12-20T02:29:46;9.10;99.90
15765;DHT22;7983;50.744;7.086;2023-12-20T02:32:18;9.00;99.90
15765;DHT22;7983;50.744;7.086;2023-12-20T02:34:44;8.90;99.90
15765;DHT22;7983;50.744;7.086;2023-12-20T02:37:12;8.80;99.90
15765;DHT22;7983;50.744;7.086;2023-12-20T02:39:37;8.80;99.90
15765;DHT22;7983;50.744;7.086;2023-12-20T02:42:03;8.70;99.90
15765;DHT22;7983;50.744;7.086;2023-12-20T02:44:31;8.60;99.90
15765;DHT22;7983;50.744;7.086;2023-12-20T02:46:57;8.60;99.90
15765;DHT22;7983;50.744;7.086;2023-12-20T02:49:22;8.40;99.90
15765;DHT22;7983;50.744;7.086;2023-12-20T02:51:48;8.40;99.90
15765;DHT22;7983;50.744;7.086;2023-12-20T02:54:13;8.30;99.90
15765;DHT22;7983;50.744;7.086;2023-12-20T02:56:44;8.20;99.90
15765;DHT22;7983;50.744;7.086;2023-12-20T02:59:10;8.10;99.90
15765;DHT22;7983;50.744;7.086;2023-12-20T03:01:35;8.10;99.90
15765;DHT22;7983;50.744;7.086;2023-12-20T03:04:09;8.00;99.90
15765;DHT22;7983;50.744;7.086;2023-12-20T03:06:37;8.00;99.90
15765;DHT22;7983;50.744;7.086;2023-12-20T03:09:05;8.00;99.90
15765;DHT22;7983;50.744;7.086;2023-12-20T03:11:33;8.00;99.90
15765;DHT22;7983;50.744;7.086;2023-12-20T03:13:59;7.90;99.90
15765;DHT22;7983;50.744;7.086;2023-12-20T03:16:24;7.80;99.90
15765;DHT22;7983;50.744;7.086;2023-12-20T03:18:51;7.80;99.90
15765;DHT22;7983;50.744;7.086;2023-12-20T03:21:16;7.80;99.90
15765;DHT22;7983;50.744;7.086;2023-12-20T03:23:42;7.80;99.90
15765;DHT22;7983;50.744;7.086;2023-12-20T03:26:08;7.80;99.90
15765;DHT22;7983;50.744;7.086;2023-12-20T03:28:36;7.70;99.90
15765;DHT22;7983;50.744;7.086;2023-12-20T03:31:02;7.80;99.90
15765;DHT22;7983;50.744;7.086;2023-12-20T03:33:30;7.70;99.90
15765;DHT22;7983;50.744;7.086;2023-12-20T03:35:58;7.80;99.90
15765;DHT22;7983;50.744;7.086;2023-12-20T03:38:26;7.80;99.90
15765;DHT22;7983;50.744;7.086;2023-12-20T03:40:54;7.80;99.90
15765;DHT22;7983;50.744;7.086;2023-12-20T03:43:19;7.80;99.90
15765;DHT22;7983;50.744;7.086;2023-12-20T03:45:45;7.90;99.90
15765;DHT22;7983;50.744;7.086;2023-12-20T03:48:11;7.90;99.90
15765;DHT22;7983;50.744;7.086;2023-12-20T03:50:36;7.90;99.90
15765;DHT22;7983;50.744;7.086;2023-12-20T03:53:02;7.90;99.90
15765;DHT22;7983;50.744;7.086;2023-12-20T03:55:29;7.90;99.90
15765;DHT22;7983;50.744;7.086;2023-12-20T03:57:55;7.90;99.90
15765;DHT22;7983;50.744;7.086;2023-12-20T04:00:20;7.90;99.90
15765;DHT22;7983;50.744;7.086;2023-12-20T04:02:48;8.00;99.90
15765;DHT22;7983;50.744;7.086;2023-12-20T04:05:13;8.00;99.90
15765;DHT22;7983;50.744;7.086;2023-12-20T04:07:39;8.00;99.90
15765;DHT22;7983;50.744;7.086;2023-12-20T04:10:05;8.00;99.90
15765;DHT22;7983;50.744;7.086;2023-12-20T04:12:31;8.00;99.90
15765;DHT22;7983;50.744;7.086;2023-12-20T04:14:57;8.00;99.90
15765;DHT22;7983;50.744;7.086;2023-12-20T04:17:23;8.00;99.90
15765;DHT22;7983;50.744;7.086;2023-12-20T04:19:49;8.10;99.90
15765;DHT22;7983;50.744;7.086;2023-12-20T04:22:20;8.10;99.90
15765;DHT22;7983;50.744;7.086;2023-12-20T04:24:48;8.10;99.90
15765;DHT22;7983;50.744;7.086;2023-12-20T04:27:16;8.10;99.90
15765;DHT22;7983;50.744;7.086;2023-12-20T04:29:43;8.10;99.90
15765;DHT22;7983;50.744;7.086;2023-12-20T04:32:09;8.10;99.90
15765;DHT22;7983;50.744;7.086;2023-12-20T04:34:34;8.10;99.90
15765;DHT22;7983;50.744;7.086;2023-12-20T04:37:00;8.10;99.90
15765;DHT22;7983;50.744;7.086;2023-12-20T04:39:27;8.10;99.90
15765;DHT22;7983;50.744;7.086;2023-12-20T04:41:52;8.10;99.90
15765;DHT22;7983;50.744;7.086;2023-12-20T04:44:18;8.20;99.90
15765;DHT22;7983;50.744;7.086;2023-12-20T04:46:46;8.20;99.90
15765;DHT22;7983;50.744;7.086;2023-12-20T04:49:12;8.10;99.90
15765;DHT22;7983;50.744;7.086;2023-12-20T04:51:38;8.20;99.90
15765;DHT22;7983;50.744;7.086;2023-12-20T04:54:03;8.10;99.90
15765;DHT22;7983;50.744;7.086;2023-12-20T04:56:29;8.10;99.90
15765;DHT22;7983;50.744;7.086;2023-12-20T04:58:54;8.10;99.90
15765;DHT22;7983;50.744;7.086;2023-12-20T05:01:20;8.20;99.90
15765;DHT22;7983;50.744;7.086;2023-12-20T05:03:48;8.20;99.90
15765;DHT22;7983;50.744;7.086;2023-12-20T05:06:13;8.20;99.90
15765;DHT22;7983;50.744;7.086;2023-12-20T05:08:40;8.20;99.90
15765;DHT22;7983;50.744;7.086;2023-12-20T05:11:08;8.10;99.90
15765;DHT22;7983;50.744;7.086;2023-12-20T05:13:34;8.10;99.90
15765;DHT22;7983;50.744;7.086;2023-12-20T05:16:00;8.10;99.90
15765;DHT22;7983;50.744;7.086;2023-12-20T05:18:25;8.00;99.90
15765;DHT22;7983;50.744;7.086;2023-12-20T05:20:53;8.00;99.90
15765;DHT22;7983;50.744;7.086;2023-12-20T05:23:21;8.00;99.90
15765;DHT22;7983;50.744;7.086;2023-12-20T05:25:49;8.00;99.90
15765;DHT22;7983;50.744;7.086;2023-12-20T05:28:15;8.00;99.90
15765;DHT22;7983;50.744;7.086;2023-12-20T05:30:40;7.90;99.90
15765;DHT22;7983;50.744;7.086;2023-12-20T05:33:06;7.90;99.90
15765;DHT22;7983;50.744;7.086;2023-12-20T05:35:34;7.90;99.90
15765;DHT22;7983;50.744;7.086;2023-12-20T05:38:00;7.90;99.90
15765;DHT22;7983;50.744;7.086;2023-12-20T05:40:25;7.80;99.90
15765;DHT22;7983;50.744;7.086;2023-12-20T05:42:53;7.80;99.90
15765;DHT22;7983;50.744;7.086;2023-12-20T05:45:19;7.80;99.90
15765;DHT22;7983;50.744;7.086;2023-12-20T05:47:45;7.80;99.90
15765;DHT22;7983;50.744;7.086;2023-12-20T05:50:11;7.70;99.90
15765;DHT22;7983;50.744;7.086;2023-12-20T05:52:39;7.70;99.90
15765;DHT22;7983;50.744;7.086;2023-12-20T05:55:18;7.80;99.90
15765;DHT22;7983;50.744;7.086;2023-12-20T05:57:54;7.70;99.90
15765;DHT22;7983;50.744;7.086;2023-12-20T06:00:20;7.80;99.90
15765;DHT22;7983;50.744;7.086;2023-12-20T06:02:45;7.70;99.90
15765;DHT22;7983;50.744;7.086;2023-12-20T06:05:11;7.70;99.90
15765;DHT22;7983;50.744;7.086;2023-12-20T06:07:37;7.70;99.90
15765;DHT22;7983;50.744;7.086;2023-12-20T06:10:03;7.70;99.90
15765;DHT22;7983;50.744;7.086;2023-12-20T06:12:29;7.70;99.90
15765;DHT22;7983;50.744;7.086;2023-12-20T06:14:57;7.70;99.90
15765;DHT22;7983;50.744;7.086;2023-12-20T06:17:23;7.70;99.90
15765;DHT22;7983;50.744;7.086;2023-12-20T06:19:50;7.70;99.90
15765;DHT22;7983;50.744;7.086;2023-12-20T06:22:16;7.80;99.90
15765;DHT22;7983;50.744;7.086;2023-12-20T06:24:42;7.80;99.90
15765;DHT22;7983;50.744;7.086;2023-12-20T06:27:07;7.70;99.90
15765;DHT22;7983;50.744;7.086;2023-12-20T06:29:33;7.70;99.90
15765;DHT22;7983;50.744;7.086;2023-12-20T06:32:00;7.70;99.90
15765;DHT22;7983;50.744;7.086;2023-12-20T06:34:27;7.70;99.90
15765;DHT22;7983;50.744;7.086;2023-12-20T06:36:53;7.80;99.90
15765;DHT22;7983;50.744;7.086;2023-12-20T06:39:21;7.90;99.90
15765;DHT22;7983;50.744;7.086;2023-12-20T06:41:51;7.80;99.90
15765;DHT22;7983;50.744;7.086;2023-12-20T06:44:17;7.90;99.90
15765;DHT22;7983;50.744;7.086;2023-12-20T06:46:43;7.90;99.90
15765;DHT22;7983;50.744;7.086;2023-12-20T06:49:11;8.00;99.90
15765;DHT22;7983;50.744;7.086;2023-12-20T06:51:37;7.90;99.90
15765;DHT22;7983;50.744;7.086;2023-12-20T06:54:03;7.90;99.90
15765;DHT22;7983;50.744;7.086;2023-12-20T06:56:28;8.00;99.90
15765;DHT22;7983;50.744;7.086;2023-12-20T06:58:54;8.00;99.90
15765;DHT22;7983;50.744;7.086;2023-12-20T07:01:20;8.00;99.90
15765;DHT22;7983;50.744;7.086;2023-12-20T07:03:45;8.00;99.90
15765;DHT22;7983;50.744;7.086;2023-12-20T07:06:11;8.10;99.90
15765;DHT22;7983;50.744;7.086;2023-12-20T07:08:41;8.10;99.90
15765;DHT22;7983;50.744;7.086;2023-12-20T07:11:06;8.10;99.90
15765;DHT22;7983;50.744;7.086;2023-12-20T07:13:32;8.20;99.90
15765;DHT22;7983;50.744;7.086;2023-12-20T07:15:57;8.10;99.90
15765;DHT22;7983;50.744;7.086;2023-12-20T07:18:23;8.10;99.90
15765;DHT22;7983;50.744;7.086;2023-12-20T07:20:51;8.30;99.90
15765;DHT22;7983;50.744;7.086;2023-12-20T07:23:19;8.20;99.90
15765;DHT22;7983;50.744;7.086;2023-12-20T07:25:45;8.20;99.90
15765;DHT22;7983;50.744;7.086;2023-12-20T07:28:11;8.20;99.90
15765;DHT22;7983;50.744;7.086;2023-12-20T07:30:36;8.20;99.90
15765;DHT22;7983;50.744;7.086;2023-12-20T07:33:04;8.20;99.90
15765;DHT22;7983;50.744;7.086;2023-12-20T07:35:34;8.20;99.90
15765;DHT22;7983;50.744;7.086;2023-12-20T07:37:59;8.30;99.90
15765;DHT22;7983;50.744;7.086;2023-12-20T07:40:25;8.30;99.90
15765;DHT22;7983;50.744;7.086;2023-12-20T07:42:51;8.30;99.90
15765;DHT22;7983;50.744;7.086;2023-12-20T07:45:16;8.30;99.90
15765;DHT22;7983;50.744;7.086;2023-12-20T07:47:42;8.30;99.90
15765;DHT22;7983;50.744;7.086;2023-12-20T07:50:10;8.30;99.90
15765;DHT22;7983;50.744;7.086;2023-12-20T07:52:35;8.30;99.90
15765;DHT22;7983;50.744;7.086;2023-12-20T07:55:01;8.40;99.90
15765;DHT22;7983;50.744;7.086;2023-12-20T07:57:30;8.30;99.90
15765;DHT22;7983;50.744;7.086;2023-12-20T07:59:58;8.30;99.90
15765;DHT22;7983;50.744;7.086;2023-12-20T08:02:24;8.30;99.90
15765;DHT22;7983;50.744;7.086;2023-12-20T08:04:51;8.30;99.90
15765;DHT22;7983;50.744;7.086;2023-12-20T08:07:17;8.40;99.90
15765;DHT22;7983;50.744;7.086;2023-12-20T08:09:42;8.40;99.90
15765;DHT22;7983;50.744;7.086;2023-12-20T08:12:09;8.40;99.90
15765;DHT22;7983;50.744;7.086;2023-12-20T08:14:37;8.40;99.90
15765;DHT22;7983;50.744;7.086;2023-12-20T08:17:09;8.40;99.90
15765;DHT22;7983;50.744;7.086;2023-12-20T08:19:37;8.40;99.90
15765;DHT22;7983;50.744;7.086;2023-12-20T08:22:05;8.40;99.90
15765;DHT22;7983;50.744;7.086;2023-12-20T08:24:31;8.40;99.90
15765;DHT22;7983;50.744;7.086;2023-12-20T08:26:56;8.40;99.90
15765;DHT22;7983;50.744;7.086;2023-12-20T08:29:22;8.50;99.90
15765;DHT22;7983;50.744;7.086;2023-12-20T08:31:52;8.50;99.90
15765;DHT22;7983;50.744;7.086;2023-12-20T08:34:19;8.50;99.90
15765;DHT22;7983;50.744;7.086;2023-12-20T08:36:47;8.60;99.90
15765;DHT22;7983;50.744;7.086;2023-12-20T08:39:13;8.50;99.90
15765;DHT22;7983;50.744;7.086;2023-12-20T08:41:38;8.50;99.90
15765;DHT22;7983;50.744;7.086;2023-12-20T08:44:06;8.50;99.90
15765;DHT22;7983;50.744;7.086;2023-12-20T08:46:32;8.60;99.90
15765;DHT22;7983;50.744;7.086;2023-12-20T08:48:57;8.60;99.90
15765;DHT22;7983;50.744;7.086;2023-12-20T08:51:23;8.50;99.90
15765;DHT22;7983;50.744;7.086;2023-12-20T08:53:51;8.60;99.90
15765;DHT22;7983;50.744;7.086;2023-12-20T08:56:16;8.60;99.90
15765;DHT22;7983;50.744;7.086;2023-12-20T08:58:43;8.60;99.90
15765;DHT22;7983;50.744;7.086;2023-12-20T09:01:09;8.70;99.90
15765;DHT22;7983;50.744;7.086;2023-12-20T09:03:37;8.70;99.90
15765;DHT22;7983;50.744;7.086;2023-12-20T09:06:03;8.70;99.90
15765;DHT22;7983;50.744;7.086;2023-12-20T09:08:28;8.70;99.90
15765;DHT22;7983;50.744;7.086;2023-12-20T09:10:54;8.80;99.90
15765;DHT22;7983;50.744;7.086;2023-12-20T09:13:20;8.90;99.90
15765;DHT22;7983;50.744;7.086;2023-12-20T09:15:47;8.90;99.90
15765;DHT22;7983;50.744;7.086;2023-12-20T09:18:15;8.90;99.90
15765;DHT22;7983;50.744;7.086;2023-12-20T09:20:40;8.90;99.90
15765;DHT22;7983;50.744;7.086;2023-12-20T09:23:10;9.00;99.90
15765;DHT22;7983;50.744;7.086;2023-12-20T09:25:41;8.90;99.90
15765;DHT22;7983;50.744;7.086;2023-12-20T09:28:06;9.00;99.90
15765;DHT22;7983;50.744;7.086;2023-12-20T09:30:34;9.00;99.90
15765;DHT22;7983;50.744;7.086;2023-12-20T09:33:03;9.00;99.90
15765;DHT22;7983;50.744;7.086;2023-12-20T09:35:31;9.00;99.90
15765;DHT22;7983;50.744;7.086;2023-12-20T09:37:59;9.00;99.90
15765;DHT22;7983;50.744;7.086;2023-12-20T09:40:26;9.00;99.90
15765;DHT22;7983;50.744;7.086;2023-12-20T09:42:58;9.00;99.90
15765;DHT22;7983;50.744;7.086;2023-12-20T09:45:24;9.00;99.90
15765;DHT22;7983;50.744;7.086;2023-12-20T09:47:53;9.00;99.90
15765;DHT22;7983;50.744;7.086;2023-12-20T09:50:22;9.00;99.90
15765;DHT22;7983;50.744;7.086;2023-12-20T09:52:55;9.00;99.90
15765;DHT22;7983;50.744;7.086;2023-12-20T09:55:25;9.00;99.90
15765;DHT22;7983;50.744;7.086;2023-12-20T09:57:51;9.00;99.90
15765;DHT22;7983;50.744;7.086;2023-12-20T10:00:23;9.00;99.90
15765;DHT22;7983;50.744;7.086;2023-12-20T10:03:03;9.00;99.90
15765;DHT22;7983;50.744;7.086;2023-12-20T10:05:32;9.00;99.90
15765;DHT22;7983;50.744;7.086;2023-12-20T10:08:00;9.00;99.90
15765;DHT22;7983;50.744;7.086;2023-12-20T10:10:26;9.10;99.90
15765;DHT22;7983;50.744;7.086;2023-12-20T10:13:05;9.10;99.90
15765;DHT22;7983;50.744;7.086;2023-12-20T10:15:33;9.10;99.90
15765;DHT22;7983;50.744;7.086;2023-12-20T10:17:58;9.00;99.90
15765;DHT22;7983;50.744;7.086;2023-12-20T10:20:26;9.10;99.90
15765;DHT22;7983;50.744;7.086;2023-12-20T10:22:55;9.10;99.90
15765;DHT22;7983;50.744;7.086;2023-12-20T10:25:22;9.10;99.90
15765;DHT22;7983;50.744;7.086;2023-12-20T10:27:49;9.10;99.90
15765;DHT22;7983;50.744;7.086;2023-12-20T10:30:14;9.10;99.90
15765;DHT22;7983;50.744;7.086;2023-12-20T10:32:40;9.10;99.90
15765;DHT22;7983;50.744;7.086;2023-12-20T10:35:08;9.10;99.90
15765;DHT22;7983;50.744;7.086;2023-12-20T10:37:36;9.10;99.90
15765;DHT22;7983;50.744;7.086;2023-12-20T10:40:04;9.20;99.90
15765;DHT22;7983;50.744;7.086;2023-12-20T10:42:32;9.20;99.90
15765;DHT22;7983;50.744;7.086;2023-12-20T10:45:00;9.20;99.90
15765;DHT22;7983;50.744;7.086;2023-12-20T10:47:26;9.20;99.90
15765;DHT22;7983;50.744;7.086;2023-12-20T10:49:57;9.20;99.90
15765;DHT22;7983;50.744;7.086;2023-12-20T10:52:27;9.20;99.90
15765;DHT22;7983;50.744;7.086;2023-12-20T10:54:54;9.30;99.90
15765;DHT22;7983;50.744;7.086;2023-12-20T10:57:21;9.30;99.90
15765;DHT22;7983;50.744;7.086;2023-12-20T10:59:49;9.30;99.90
15765;DHT22;7983;50.744;7.086;2023-12-20T11:02:17;9.30;99.90
15765;DHT22;7983;50.744;7.086;2023-12-20T11:04:53;9.50;99.90
15765;DHT22;7983;50.744;7.086;2023-12-20T11:07:33;9.30;99.90
15765;DHT22;7983;50.744;7.086;2023-12-20T11:10:20;9.40;99.90
15765;DHT22;7983;50.744;7.086;2023-12-20T11:12:53;9.40;99.90
15765;DHT22;7983;50.744;7.086;2023-12-20T11:15:21;9.40;99.90
15765;DHT22;7983;50.744;7.086;2023-12-20T11:17:55;9.50;99.90
15765;DHT22;7983;50.744;7.086;2023-12-20T11:20:35;9.40;99.90
15765;DHT22;7983;50.744;7.086;2023-12-20T11:23:01;9.30;99.90
15765;DHT22;7983;50.744;7.086;2023-12-20T11:25:26;9.40;99.90
15765;DHT22;7983;50.744;7.086;2023-12-20T11:28:13;9.40;99.90
15765;DHT22;7983;50.744;7.086;2023-12-20T11:30:55;9.50;99.90
15765;DHT22;7983;50.744;7.086;2023-12-20T11:33:31;9.50;99.90
15765;DHT22;7983;50.744;7.086;2023-12-20T11:36:03;9.50;99.90
15765;DHT22;7983;50.744;7.086;2023-12-20T11:38:40;9.40;99.90
15765;DHT22;7983;50.744;7.086;2023-12-20T11:41:15;9.40;99.90
15765;DHT22;7983;50.744;7.086;2023-12-20T11:43:43;9.40;99.90
15765;DHT22;7983;50.744;7.086;2023-12-20T11:46:12;9.40;99.90
15765;DHT22;7983;50.744;7.086;2023-12-20T11:48:42;9.40;99.90
15765;DHT22;7983;50.744;7.086;2023-12-20T11:51:13;9.40;99.90
15765;DHT22;7983;50.744;7.086;2023-12-20T11:53:40;9.40;99.90
15765;DHT22;7983;50.744;7.086;2023-12-20T11:56:09;9.40;99.90
15765;DHT22;7983;50.744;7.086;2023-12-20T11:58:37;9.40;99.90
15765;DHT22;7983;50.744;7.086;2023-12-20T12:01:04;9.50;99.90
15765;DHT22;7983;50.744;7.086;2023-12-20T12:03:36;9.40;99.90
15765;DHT22;7983;50.744;7.086;2023-12-20T12:06:02;9.40;99.90
15765;DHT22;7983;50.744;7.086;2023-12-20T12:08:32;9.50;99.90
15765;DHT22;7983;50.744;7.086;2023-12-20T12:10:58;9.50;99.90
15765;DHT22;7983;50.744;7.086;2023-12-20T12:13:26;9.50;99.90
15765;DHT22;7983;50.744;7.086;2023-12-20T12:15:53;9.60;99.90
15765;DHT22;7983;50.744;7.086;2023-12-20T12:18:21;9.50;99.90
15765;DHT22;7983;50.744;7.086;2023-12-20T12:20:47;9.60;99.90
15765;DHT22;7983;50.744;7.086;2023-12-20T12:23:12;9.70;99.90
15765;DHT22;7983;50.744;7.086;2023-12-20T12:25:40;9.70;99.90
15765;DHT22;7983;50.744;7.086;2023-12-20T12:28:06;9.70;99.90
15765;DHT22;7983;50.744;7.086;2023-12-20T12:30:35;9.70;99.90
15765;DHT22;7983;50.744;7.086;2023-12-20T12:33:01;9.80;99.90
15765;DHT22;7983;50.744;7.086;2023-12-20T12:35:29;9.80;99.90
15765;DHT22;7983;50.744;7.086;2023-12-20T12:37:59;9.80;99.90
15765;DHT22;7983;50.744;7.086;2023-12-20T12:40:25;9.70;99.90
15765;DHT22;7983;50.744;7.086;2023-12-20T12:42:53;9.80;99.90
15765;DHT22;7983;50.744;7.086;2023-12-20T12:45:19;9.70;99.90
15765;DHT22;7983;50.744;7.086;2023-12-20T12:47:45;9.70;99.90
15765;DHT22;7983;50.744;7.086;2023-12-20T12:50:10;9.80;99.90
15765;DHT22;7983;50.744;7.086;2023-12-20T12:52:36;9.70;99.90
15765;DHT22;7983;50.744;7.086;2023-12-20T12:55:03;9.70;99.90
15765;DHT22;7983;50.744;7.086;2023-12-20T12:57:33;9.70;99.90
15765;DHT22;7983;50.744;7.086;2023-12-20T12:59:59;9.80;99.90
15765;DHT22;7983;50.744;7.086;2023-12-20T13:02:24;9.80;99.90
15765;DHT22;7983;50.744;7.086;2023-12-20T13:04:50;9.70;99.90
15765;DHT22;7983;50.744;7.086;2023-12-20T13:07:16;9.70;99.90
15765;DHT22;7983;50.744;7.086;2023-12-20T13:09:42;9.70;99.90
15765;DHT22;7983;50.744;7.086;2023-12-20T13:12:08;9.70;99.90
15765;DHT22;7983;50.744;7.086;2023-12-20T13:14:34;9.70;99.90
15765;DHT22;7983;50.744;7.086;2023-12-20T13:17:02;9.70;99.90
15765;DHT22;7983;50.744;7.086;2023-12-20T13:19:29;9.70;99.90
15765;DHT22;7983;50.744;7.086;2023-12-20T13:21:56;9.70;99.90
15765;DHT22;7983;50.744;7.086;2023-12-20T13:24:21;9.70;99.90
15765;DHT22;7983;50.744;7.086;2023-12-20T13:26:47;9.70;99.90
15765;DHT22;7983;50.744;7.086;2023-12-20T13:29:12;9.60;99.90
15765;DHT22;7983;50.744;7.086;2023-12-20T13:31:42;9.70;99.90
15765;DHT22;7983;50.744;7.086;2023-12-20T13:34:10;9.70;99.90
15765;DHT22;7983;50.744;7.086;2023-12-20T13:36:41;9.60;99.90
15765;DHT22;7983;50.744;7.086;2023-12-20T13:39:08;9.60;99.90
15765;DHT22;7983;50.744;7.086;2023-12-20T13:41:33;9.60;99.90
15765;DHT22;7983;50.744;7.086;2023-12-20T13:43:59;9.50;99.90
15765;DHT22;7983;50.744;7.086;2023-12-20T13:46:24;9.40;99.90
15765;DHT22;7983;50.744;7.086;2023-12-20T13:48:50;9.30;99.90
15765;DHT22;7983;50.744;7.086;2023-12-20T13:51:16;9.20;99.90
15765;DHT22;7983;50.744;7.086;2023-12-20T13:53:41;9.20;99.90
15765;DHT22;7983;50.744;7.086;2023-12-20T13:56:09;9.10;99.90
15765;DHT22;7983;50.744;7.086;2023-12-20T13:58:39;9.10;99.90
15765;DHT22;7983;50.744;7.086;2023-12-20T14:01:07;9.10;99.90
15765;DHT22;7983;50.744;7.086;2023-12-20T14:03:33;9.10;99.90
15765;DHT22;7983;50.744;7.086;2023-12-20T14:06:00;9.10;99.90
15765;DHT22;7983;50.744;7.086;2023-12-20T14:08:27;9.00;99.90
15765;DHT22;7983;50.744;7.086;2023-12-20T14:10:53;9.00;99.90
15765;DHT22;7983;50.744;7.086;2023-12-20T14:13:18;9.10;99.90
15765;DHT22;7983;50.744;7.086;2023-12-20T14:15:47;9.00;99.90
15765;DHT22;7983;50.744;7.086;2023-12-20T14:18:17;9.00;99.90
15765;DHT22;7983;50.744;7.086;2023-12-20T14:20:46;9.00;99.90
15765;DHT22;7983;50.744;7.086;2023-12-20T14:23:13;9.00;99.90
15765;DHT22;7983;50.744;7.086;2023-12-20T14:25:41;9.00;99.90
15765;DHT22;7983;50.744;7.086;2023-12-20T14:28:07;9.00;99.90
15765;DHT22;7983;50.744;7.086;2023-12-20T14:30:35;9.00;99.90
15765;DHT22;7983;50.744;7.086;2023-12-20T14:33:04;9.10;99.90
15765;DHT22;7983;50.744;7.086;2023-12-20T14:35:30;9.00;99.90
15765;DHT22;7983;50.744;7.086;2023-12-20T14:37:55;9.00;99.90
15765;DHT22;7983;50.744;7.086;2023-12-20T14:40:23;9.10;99.90
15765;DHT22;7983;50.744;7.086;2023-12-20T14:42:51;9.00;99.90
15765;DHT22;7983;50.744;7.086;2023-12-20T14:45:17;9.10;99.90
15765;DHT22;7983;50.744;7.086;2023-12-20T14:47:43;9.10;99.90
15765;DHT22;7983;50.744;7.086;2023-12-20T14:50:13;9.10;99.90
15765;DHT22;7983;50.744;7.086;2023-12-20T14:52:43;9.10;99.90
15765;DHT22;7983;50.744;7.086;2023-12-20T14:55:11;9.10;99.90
15765;DHT22;7983;50.744;7.086;2023-12-20T14:57:36;9.10;99.90
15765;DHT22;7983;50.744;7.086;2023-12-20T15:00:02;9.10;99.90
15765;DHT22;7983;50.744;7.086;2023-12-20T15:02:29;9.10;99.90
15765;DHT22;7983;50.744;7.086;2023-12-20T15:04:57;9.10;99.90
15765;DHT22;7983;50.744;7.086;2023-12-20T15:07:30;9.10;99.90
15765;DHT22;7983;50.744;7.086;2023-12-20T15:09:55;9.10;99.90
15765;DHT22;7983;50.744;7.086;2023-12-20T15:12:25;9.20;99.90
15765;DHT22;7983;50.744;7.086;2023-12-20T15:14:51;9.10;99.90
15765;DHT22;7983;50.744;7.086;2023-12-20T15:17:16;9.10;99.90
15765;DHT22;7983;50.744;7.086;2023-12-20T15:19:42;9.20;99.90
15765;DHT22;7983;50.744;7.086;2023-12-20T15:22:08;9.20;99.90
15765;DHT22;7983;50.744;7.086;2023-12-20T15:24:34;9.10;99.90
15765;DHT22;7983;50.744;7.086;2023-12-20T15:27:08;9.20;99.90
15765;DHT22;7983;50.744;7.086;2023-12-20T15:29:34;9.10;99.90
15765;DHT22;7983;50.744;7.086;2023-12-20T15:31:59;9.20;99.90
15765;DHT22;7983;50.744;7.086;2023-12-20T15:34:25;9.10;99.90
15765;DHT22;7983;50.744;7.086;2023-12-20T15:36:51;9.20;99.90
15765;DHT22;7983;50.744;7.086;2023-12-20T15:39:16;9.20;99.90
15765;DHT22;7983;50.744;7.086;2023-12-20T15:41:42;9.20;99.90
15765;DHT22;7983;50.744;7.086;2023-12-20T15:44:10;9.20;99.90
15765;DHT22;7983;50.744;7.086;2023-12-20T15:46:36;9.30;99.90
15765;DHT22;7983;50.744;7.086;2023-12-20T15:49:02;9.30;99.90
15765;DHT22;7983;50.744;7.086;2023-12-20T15:51:29;9.20;99.90
15765;DHT22;7983;50.744;7.086;2023-12-20T15:53:55;9.30;99.90
15765;DHT22;7983;50.744;7.086;2023-12-20T15:56:22;9.30;99.90
15765;DHT22;7983;50.744;7.086;2023-12-20T15:58:48;9.30;99.90
15765;DHT22;7983;50.744;7.086;2023-12-20T16:01:19;9.30;99.90